Time;durP1;ratioP1;P1;durP2;ratioP2;P2;SDS_P1;SDS_P2;PMS_P1;PMS_P2;Temp;Humidity;BMP_temperature;BMP_pressure;BME280_temperature;BME280_humidity;BME280_pressure;Samples;Min_cycle;Max_cycle;Signal;HPM_P1;HPM_P2
2022/05/25 00:01:16;;;;;;;7.80;3.47;;;;;;;11.50;84.06;101149.81;5188511;28;20030;-77
2022/05/25 00:03:48;;;;;;;5.73;3.20;;;;;;;11.41;84.60;101151.19;5177142;28;20027;-77
2022/05/25 00:06:19;;;;;;;5.30;3.93;;;;;;;11.21;85.09;101154.97;5173157;28;20455;-78
2022/05/25 00:08:50;;;;;;;6.30;3.80;;;;;;;11.11;84.83;101149.41;5172146;28;20051;-78
2022/05/25 00:11:22;;;;;;;5.93;4.00;;;;;;;11.03;85.25;101152.44;5172745;28;20540;-78
2022/05/25 00:13:53;;;;;;;6.40;4.40;;;;;;;11.38;84.68;101154.84;5177814;28;20018;-77
2022/05/25 00:16:24;;;;;;;5.20;4.07;;;;;;;11.15;85.25;101148.31;5170397;28;20043;-78
2022/05/25 00:21:45;;;;;;;5.53;4.33;;;;;;;11.10;85.96;101153.81;5184520;28;20035;-78
2022/05/25 00:24:17;;;;;;;7.43;4.57;;;;;;;11.12;86.24;101156.34;5194232;28;20027;-78
2022/05/25 00:26:48;;;;;;;6.80;4.57;;;;;;;11.03;87.12;101155.06;5178858;28;20451;-78
2022/05/25 00:29:19;;;;;;;7.00;4.80;;;;;;;11.06;86.86;101159.31;5173457;28;20015;-77
2022/05/25 00:31:51;;;;;;;7.97;5.23;;;;;;;10.95;86.42;101163.38;5173071;28;20081;-78
2022/05/25 00:34:22;;;;;;;13.97;4.77;;;;;;;11.07;86.96;101169.72;5172092;28;20045;-77
2022/05/25 00:36:54;;;;;;;8.03;5.27;;;;;;;10.88;87.26;101157.66;5174974;28;20030;-78
2022/05/25 00:39:25;;;;;;;7.33;5.40;;;;;;;10.89;88.17;101153.28;5189487;28;20029;-77
2022/05/25 00:41:56;;;;;;;7.20;5.30;;;;;;;10.73;89.10;101163.75;5184627;28;20048;-78
2022/05/25 00:44:27;;;;;;;6.07;5.47;;;;;;;11.03;87.61;101144.59;5182340;28;20042;-79
2022/05/25 00:46:59;;;;;;;5.77;4.63;;;;;;;10.98;87.06;101170.22;5190873;28;20026;-78
2022/05/25 00:49:33;;;;;;;6.97;5.63;;;;;;;10.80;88.43;101164.25;5185555;28;20029;-78
2022/05/25 00:52:11;;;;;;;10.52;5.68;;;;;;;10.96;87.75;101169.47;5180770;28;20054;-77
2022/05/25 00:54:51;;;;;;;6.67;4.83;;;;;;;11.02;87.05;101169.13;5183600;28;20325;-78
2022/05/25 00:57:43;;;;;;;6.07;5.47;;;;;;;11.10;86.89;101187.88;5173245;28;20030;-78
2022/05/25 01:00:18;;;;;;;8.70;6.00;;;;;;;11.00;88.04;101171.84;5171302;28;20449;-78
2022/05/25 01:02:56;;;;;;;9.03;5.27;;;;;;;10.77;89.14;101180.97;5172382;28;20035;-78
2022/05/25 01:05:34;;;;;;;6.20;5.60;;;;;;;11.03;87.96;101186.53;5171226;28;20027;-79
2022/05/25 01:08:14;;;;;;;6.83;5.93;;;;;;;10.96;89.11;101190.44;5203832;23;20065;-78
2022/05/25 01:11:17;;;;;;;8.70;5.23;;;;;;;10.84;89.33;101191.97;5197742;28;20069;-78
2022/05/25 01:14:07;;;;;;;10.10;5.90;;;;;;;10.83;89.30;101196.38;5170830;28;20074;-78
2022/05/25 01:16:50;;;;;;;11.37;6.60;;;;;;;10.77;89.25;101194.94;5172186;28;20062;-78
2022/05/25 01:20:05;;;;;;;7.67;6.03;;;;;;;10.76;89.32;101201.09;5174360;28;20053;-78
2022/05/25 01:23:01;;;;;;;7.63;5.53;;;;;;;10.76;89.66;101193.25;5183779;28;20038;-78
2022/05/25 01:26:07;;;;;;;9.90;6.00;;;;;;;10.72;89.76;101190.84;5191792;28;20034;-78
2022/05/25 01:29:03;;;;;;;9.50;5.87;;;;;;;10.88;88.18;101199.56;5192326;28;20113;-78
2022/05/25 01:31:49;;;;;;;10.57;6.07;;;;;;;10.91;88.68;101195.94;5192138;28;20034;-78
2022/05/25 01:34:51;;;;;;;8.47;5.80;;;;;;;10.87;88.62;101190.00;5190742;28;20641;-78
2022/05/25 01:38:06;;;;;;;7.00;5.70;;;;;;;10.85;87.95;101194.50;5184438;28;20065;-78
2022/05/25 01:40:44;;;;;;;10.50;6.10;;;;;;;10.51;89.50;101198.97;5147505;29;20473;-78
2022/05/25 01:43:53;;;;;;;7.83;6.00;;;;;;;10.60;89.75;101206.34;5148189;29;20576;-78
2022/05/25 01:46:32;;;;;;;8.17;6.57;;;;;;;10.60;88.93;101198.47;5180279;28;20158;-78
2022/05/25 01:49:07;;;;;;;7.10;6.23;;;;;;;10.64;89.30;101210.47;5190542;28;20109;-79
2022/05/25 01:51:47;;;;;;;9.17;6.27;;;;;;;10.64;89.24;101202.63;5189355;28;20409;-78
2022/05/25 01:54:23;;;;;;;9.00;6.63;;;;;;;10.40;89.99;101200.34;5191259;28;20109;-78
2022/05/25 01:56:58;;;;;;;10.43;6.07;;;;;;;10.63;89.05;101206.16;5189344;28;20026;-78
2022/05/25 01:59:29;;;;;;;8.83;6.87;;;;;;;10.30;90.76;101201.75;5191499;28;20612;-78
2022/05/25 02:04:57;;;;;;;8.37;5.90;;;;;;;10.62;89.63;101212.34;5190421;28;20113;-78
2022/05/25 02:07:53;;;;;;;6.65;5.75;;;;;;;10.60;89.49;101206.34;5189562;28;20556;-78
2022/05/25 02:10:28;;;;;;;7.23;6.47;;;;;;;10.39;90.23;101198.66;5189395;28;20061;-79
2022/05/25 02:13:14;;;;;;;11.87;6.40;;;;;;;10.56;89.56;101209.22;5190689;28;20030;-78
2022/05/25 02:16:11;;;;;;;9.27;6.20;;;;;;;10.62;88.77;101214.94;5190017;28;20041;-78
2022/05/25 02:19:17;;;;;;;8.50;5.60;;;;;;;10.57;88.71;101206.50;5190219;28;20130;-78
2022/05/25 02:22:02;;;;;;;9.97;6.20;;;;;;;10.50;89.12;101200.75;5173579;28;20052;-78
2022/05/25 02:24:47;;;;;;;;;;;;;;;10.64;87.01;101207.88;5171093;28;20050;-78
2022/05/25 02:27:31;;;;;;;9.17;5.90;;;;;;;10.54;88.70;101211.91;5180312;28;19920;-78
2022/05/25 02:30:13;;;;;;;9.07;6.93;;;;;;;10.43;89.66;101211.59;5190773;28;20117;-78
2022/05/25 02:32:52;;;;;;;8.80;6.63;;;;;;;10.29;90.59;101213.19;5189597;28;20018;-78
2022/05/25 02:35:25;;;;;;;10.33;6.73;;;;;;;10.40;89.93;101216.06;5189803;28;20034;-78
2022/05/25 02:38:02;;;;;;;15.00;6.43;;;;;;;10.22;91.09;101220.50;5190179;28;20019;-78
2022/05/25 02:40:35;;;;;;;6.37;5.77;;;;;;;10.37;89.62;101216.22;5190946;28;20026;-77
2022/05/25 02:43:08;;;;;;;8.93;6.13;;;;;;;10.24;90.34;101215.19;5189480;28;20041;-78
2022/05/25 02:45:39;;;;;;;8.97;6.53;;;;;;;10.38;89.39;101223.19;5189686;28;20054;-78
2022/05/25 02:48:11;;;;;;;9.13;6.50;;;;;;;10.31;90.13;101224.41;5187496;28;20480;-78
2022/05/25 02:50:42;;;;;;;10.50;5.53;;;;;;;10.34;89.29;101221.63;5189714;28;20121;-78
2022/05/25 02:53:13;;;;;;;11.30;6.20;;;;;;;10.33;89.39;101225.19;5189802;28;20026;-78
2022/05/25 02:55:44;;;;;;;8.53;5.47;;;;;;;10.27;89.70;101226.34;5190463;28;20026;-78
2022/05/25 02:58:16;;;;;;;8.07;5.27;;;;;;;10.23;89.54;101231.81;5189902;28;20022;-78
2022/05/25 03:00:47;;;;;;;7.67;5.90;;;;;;;10.19;89.44;101232.91;5190224;28;20070;-78
2022/05/25 03:03:19;;;;;;;10.60;6.20;;;;;;;10.08;90.91;101234.31;5192358;28;20041;-78
2022/05/25 03:05:50;;;;;;;8.13;5.30;;;;;;;10.19;90.15;101232.91;5193591;28;20062;-78
2022/05/25 03:08:21;;;;;;;7.83;5.73;;;;;;;9.96;90.11;101237.56;5192047;28;20162;-78
2022/05/25 03:10:53;;;;;;;5.70;5.10;;;;;;;10.18;89.85;101226.81;5192890;28;20057;-77
2022/05/25 03:13:24;;;;;;;7.60;5.80;;;;;;;9.96;90.76;101240.16;5194002;28;20362;-77
2022/05/25 03:16:00;;;;;;;7.97;5.53;;;;;;;9.98;90.71;101246.19;5198494;28;20026;-78
2022/05/25 03:18:31;;;;;;;8.90;5.83;;;;;;;9.96;90.50;101243.66;5193065;28;20022;-77
2022/05/25 03:21:02;;;;;;;7.33;4.97;;;;;;;9.84;90.66;101239.03;5181378;28;20071;-78
2022/05/25 03:23:34;;;;;;;6.77;5.13;;;;;;;10.04;89.82;101249.31;5173401;28;20031;-78
2022/05/25 03:26:06;;;;;;;6.13;5.00;;;;;;;9.91;90.34;101253.50;5193341;28;20058;-77
2022/05/25 03:28:37;;;;;;;8.70;4.97;;;;;;;9.98;90.12;101240.94;5192271;28;20034;-77
2022/05/25 03:31:09;;;;;;;12.50;6.80;;;;;;;9.76;90.57;101244.63;5195500;28;20042;-77
2022/05/25 03:33:40;;;;;;;11.40;5.27;;;;;;;9.82;90.87;101243.47;5196592;28;20145;-78
2022/05/25 03:36:11;;;;;;;11.60;5.30;;;;;;;9.90;90.25;101250.03;5192125;28;20034;-77
2022/05/25 03:38:42;;;;;;;8.33;5.10;;;;;;;9.88;90.61;101256.28;5196964;28;20026;-78
2022/05/25 03:41:17;;;;;;;12.00;5.53;;;;;;;9.99;90.09;101263.56;5194787;28;20051;-78
2022/05/25 03:43:48;;;;;;;10.13;4.90;;;;;;;9.91;89.85;101256.94;5193772;28;20646;-78
2022/05/25 03:46:20;;;;;;;6.87;4.87;;;;;;;9.82;90.48;101267.88;5191690;28;20030;-78
2022/05/25 03:48:51;;;;;;;8.73;5.17;;;;;;;9.74;90.71;101270.03;5192529;28;20108;-77
2022/05/25 03:51:22;;;;;;;7.23;5.13;;;;;;;9.91;90.44;101270.03;5191514;28;20777;-78
2022/05/25 03:53:54;;;;;;;10.60;5.03;;;;;;;9.97;90.38;101266.25;5192718;28;20027;-78
2022/05/25 03:56:25;;;;;;;9.43;4.93;;;;;;;9.98;90.18;101272.34;5193500;28;20031;-78
2022/05/25 03:58:56;;;;;;;9.97;4.80;;;;;;;9.90;90.13;101273.56;5193075;28;20076;-78
2022/05/25 04:01:28;;;;;;;8.30;5.07;;;;;;;9.86;90.42;101279.88;5192395;28;20031;-78
2022/05/25 04:04:00;;;;;;;10.00;5.03;;;;;;;9.66;91.66;101276.50;5192881;28;20034;-78
2022/05/25 04:06:31;;;;;;;8.67;4.53;;;;;;;9.89;91.04;101279.75;5191970;28;20054;-77
2022/05/25 04:09:03;;;;;;;7.40;4.53;;;;;;;9.89;90.59;101284.97;5192865;28;20062;-78
2022/05/25 04:11:35;;;;;;;9.47;4.80;;;;;;;9.87;90.43;101285.97;5192887;28;20022;-78
2022/05/25 04:14:07;;;;;;;6.90;4.27;;;;;;;9.76;91.17;101286.47;5192340;28;20038;-78
2022/05/25 04:16:38;;;;;;;9.23;4.73;;;;;;;9.89;90.77;101284.97;5191182;28;20030;-78
2022/05/25 04:19:09;;;;;;;6.10;4.57;;;;;;;9.83;91.25;101290.50;5190866;28;20089;-77
2022/05/25 04:21:42;;;;;;;7.37;4.10;;;;;;;9.90;91.09;101294.50;5192275;28;20038;-77
2022/05/25 04:24:13;;;;;;;10.23;5.00;;;;;;;9.86;90.79;101285.09;5191890;28;20038;-77
2022/05/25 04:26:44;;;;;;;8.23;5.20;;;;;;;9.90;91.12;101291.88;5196611;28;20042;-77
2022/05/25 04:29:15;;;;;;;11.23;4.70;;;;;;;9.72;92.29;101284.97;5192806;28;20107;-77
2022/05/25 04:31:47;;;;;;;12.00;4.93;;;;;;;9.87;91.61;101285.97;5192419;28;20467;-77
2022/05/25 04:34:18;;;;;;;12.93;5.10;;;;;;;9.90;91.55;101297.13;5192187;28;20686;-77
2022/05/25 04:36:49;;;;;;;10.20;4.30;;;;;;;9.82;91.52;101277.50;5191386;28;20121;-77
2022/05/25 04:39:20;;;;;;;11.47;5.63;;;;;;;9.85;92.06;101290.41;5192360;28;20488;-77
2022/05/25 04:41:52;;;;;;;7.20;4.53;;;;;;;9.92;91.68;101295.28;5191667;28;20035;-77
2022/05/25 04:44:23;;;;;;;11.00;5.30;;;;;;;9.91;92.01;101301.41;5190990;28;20030;-77
2022/05/25 04:46:54;;;;;;;9.60;4.43;;;;;;;9.77;93.09;101301.28;5190357;28;20023;-77
2022/05/25 04:49:26;;;;;;;8.23;4.13;;;;;;;9.90;92.37;101299.75;5192099;28;20023;-77
2022/05/25 04:51:57;;;;;;;12.17;4.40;;;;;;;9.91;92.61;101298.81;5189846;28;20019;-77
2022/05/25 04:54:29;;;;;;;9.63;4.73;;;;;;;9.94;92.27;101308.28;5191201;28;20508;-77
2022/05/25 04:59:51;;;;;;;9.23;4.00;;;;;;;9.93;92.68;101304.81;5192429;28;20645;-77
2022/05/25 05:02:23;;;;;;;7.90;4.90;;;;;;;9.94;92.99;101313.50;5191607;28;20470;-77
2022/05/25 05:04:54;;;;;;;6.93;4.17;;;;;;;9.93;93.43;101312.66;5190766;28;20038;-77
2022/05/25 05:07:31;;;;;;;7.70;4.67;;;;;;;9.96;93.20;101316.06;5191181;28;20086;-76
2022/05/25 05:10:03;;;;;;;9.50;5.03;;;;;;;9.96;92.80;101316.06;5191789;28;20030;-77
2022/05/25 05:12:34;;;;;;;7.90;4.43;;;;;;;10.00;93.53;101315.00;5189736;28;20038;-77
2022/05/25 05:15:06;;;;;;;15.00;4.77;;;;;;;10.05;93.56;101320.84;5190582;28;20030;-76
2022/05/25 05:17:37;;;;;;;8.80;3.80;;;;;;;10.09;92.71;101316.31;5191778;28;20026;-78
2022/05/25 05:20:09;;;;;;;10.23;4.87;;;;;;;10.07;93.30;101311.13;5189626;28;20448;-77
2022/05/25 05:22:40;;;;;;;11.37;4.67;;;;;;;10.02;94.11;101315.72;5190044;28;20485;-78
2022/05/25 05:25:12;;;;;;;9.27;3.87;;;;;;;10.12;93.68;101303.88;5190737;28;20485;-78
2022/05/25 05:27:45;;;;;;;9.40;5.03;;;;;;;10.10;93.67;101302.28;5190705;28;20117;-78
2022/05/25 05:30:20;;;;;;;12.10;5.40;;;;;;;10.13;93.69;101297.75;5188618;28;20823;-78
2022/05/25 05:32:51;;;;;;;9.33;4.53;;;;;;;10.23;93.32;101305.09;5190163;28;20568;-77
2022/05/25 05:35:24;;;;;;;9.73;4.97;;;;;;;10.23;93.70;101300.72;5190135;28;20038;-77
2022/05/25 05:37:56;;;;;;;13.27;5.27;;;;;;;10.14;94.50;101301.22;5190514;28;20476;-77
2022/05/25 05:40:29;;;;;;;11.03;5.73;;;;;;;10.29;93.52;101303.03;5194699;28;20033;-77
2022/05/25 05:43:03;;;;;;;11.23;5.03;;;;;;;10.28;93.69;101300.50;5191494;28;20022;-78
2022/05/25 05:45:38;;;;;;;13.13;6.40;;;;;;;10.34;93.31;101292.31;5188782;28;20053;-78
2022/05/25 05:48:14;;;;;;;10.97;5.20;;;;;;;10.40;94.12;101301.66;5190942;28;20065;-77
2022/05/25 05:50:50;;;;;;;12.53;5.87;;;;;;;10.43;94.11;101298.84;5189205;28;20025;-79
2022/05/25 05:53:27;;;;;;;10.50;4.83;;;;;;;10.46;93.89;101296.06;5189344;28;20030;-79
2022/05/25 05:55:58;;;;;;;10.43;5.30;;;;;;;10.48;94.45;101296.03;5189493;28;20517;-79
2022/05/25 05:58:30;;;;;;;10.37;5.50;;;;;;;10.46;93.84;101279.50;5191200;28;20069;-79
2022/05/25 06:01:01;;;;;;;13.27;5.80;;;;;;;10.60;94.26;101311.09;5189968;28;20022;-79
2022/05/25 06:03:32;;;;;;;8.97;5.37;;;;;;;10.63;93.71;101304.84;5188244;28;20045;-79
2022/05/25 06:06:04;;;;;;;11.57;4.77;;;;;;;10.68;93.42;101302.84;5183552;28;20030;-79
2022/05/25 06:08:35;;;;;;;8.67;5.40;;;;;;;10.73;93.96;101305.22;5188638;28;20069;-79
2022/05/25 06:11:06;;;;;;;11.73;5.87;;;;;;;10.79;93.48;101315.34;5189522;28;20027;-79
2022/05/25 06:13:37;;;;;;;10.57;5.30;;;;;;;10.86;93.32;101318.50;5188767;28;20037;-78
2022/05/25 06:21:48;;;;;;;12.20;5.90;;;;;;;11.03;92.26;101324.63;5182046;28;20034;-78
2022/05/25 06:24:20;;;;;;;11.30;5.33;;;;;;;10.99;92.93;101318.69;5185920;28;20470;-78
2022/05/25 06:26:51;;;;;;;9.63;5.60;;;;;;;11.19;93.18;101337.75;5177266;28;20031;-78
2022/05/25 06:29:23;;;;;;;14.87;6.00;;;;;;;11.33;92.68;101343.06;5182413;28;20030;-78
2022/05/25 06:31:54;;;;;;;11.33;6.33;;;;;;;11.41;91.14;101341.78;5189073;28;20037;-78
2022/05/25 06:34:25;;;;;;;12.40;6.60;;;;;;;11.50;90.47;101330.81;5169428;28;20089;-78
2022/05/25 06:36:56;;;;;;;14.17;6.77;;;;;;;11.62;89.18;101340.56;5175309;28;20046;-77
2022/05/25 06:39:28;;;;;;;12.13;7.17;;;;;;;11.67;89.70;101345.59;5193382;28;20046;-78
2022/05/25 06:41:59;;;;;;;12.00;6.40;;;;;;;11.86;88.88;101342.75;5191013;28;20042;-77
2022/05/25 06:44:31;;;;;;;14.27;7.43;;;;;;;11.92;88.41;101346.78;5178623;28;20061;-73
2022/05/25 06:47:03;;;;;;;14.07;8.07;;;;;;;12.07;88.43;101347.69;5179276;28;20034;-77
2022/05/25 06:49:35;;;;;;;15.90;8.40;;;;;;;12.17;88.00;101365.56;5187153;28;20085;-77
2022/05/25 06:52:09;;;;;;;18.20;10.07;;;;;;;12.18;87.82;101339.19;5191814;28;20065;-77
2022/05/25 06:54:42;;;;;;;13.88;9.50;;;;;;;12.27;86.99;101337.81;5192826;28;20567;-84
2022/05/25 06:57:13;;;;;;;11.93;8.90;;;;;;;12.39;87.29;101352.00;5192067;28;20034;-80
2022/05/25 06:59:44;;;;;;;12.20;8.50;;;;;;;12.52;86.80;101344.25;5193309;28;20096;-80
2022/05/25 07:02:15;;;;;;;14.40;8.03;;;;;;;12.60;86.17;101359.56;5192379;28;20370;-79
2022/05/25 07:04:47;;;;;;;16.80;9.00;;;;;;;12.64;85.89;101355.78;5191330;28;20591;-83
2022/05/25 07:07:19;;;;;;;13.30;9.13;;;;;;;12.78;84.49;101369.88;5192922;28;20560;-79
2022/05/25 07:09:51;;;;;;;14.10;8.97;;;;;;;12.81;84.39;101367.91;5191121;28;20058;-75
2022/05/25 07:12:22;;;;;;;16.33;8.60;;;;;;;13.06;83.15;101366.41;5183999;28;20031;-76
2022/05/25 07:14:53;;;;;;;11.57;7.80;;;;;;;13.51;81.99;101368.00;5186035;28;20111;-75
2022/05/25 07:17:25;;;;;;;14.10;7.57;;;;;;;13.51;81.07;101367.16;5192902;28;20069;-75
2022/05/25 07:19:56;;;;;;;14.23;7.73;;;;;;;13.67;80.28;101377.56;5188429;28;20057;-76
2022/05/25 07:22:27;;;;;;;13.17;8.27;;;;;;;13.71;79.52;101389.59;5175878;28;20035;-75
2022/05/25 07:24:58;;;;;;;13.73;8.37;;;;;;;13.76;79.00;101384.03;5182286;28;20030;-76
2022/05/25 07:27:30;;;;;;;11.57;7.70;;;;;;;13.94;78.81;101389.03;5173542;28;20035;-76
2022/05/25 07:30:01;;;;;;;14.20;8.20;;;;;;;14.27;77.42;101367.53;5171670;28;20077;-76
2022/05/25 07:32:33;;;;;;;11.30;6.77;;;;;;;14.87;75.25;101369.66;5172309;28;20911;-76
2022/05/25 07:35:05;;;;;;;10.63;6.63;;;;;;;15.46;73.11;101388.41;5186681;28;20053;-76
2022/05/25 07:37:39;;;;;;;10.13;6.83;;;;;;;16.19;71.62;101387.56;5195948;28;20481;-75
2022/05/25 07:40:16;;;;;;;9.73;6.57;;;;;;;16.77;68.94;101379.72;5195040;28;20057;-75
2022/05/25 07:42:50;;;;;;;10.87;6.17;;;;;;;17.13;67.38;101377.81;5189894;28;20030;-73
2022/05/25 07:45:23;;;;;;;8.70;5.17;;;;;;;17.52;65.33;101387.94;5190654;28;20018;-78
2022/05/25 07:47:54;;;;;;;10.17;5.90;;;;;;;18.02;62.90;101377.78;5183509;28;20058;-79
2022/05/25 07:50:25;;;;;;;8.57;4.93;;;;;;;17.74;61.53;101390.66;5188602;28;20091;-76
2022/05/25 07:52:59;;;;;;;10.63;5.30;;;;;;;17.36;62.20;101392.81;5189102;28;20023;-84
2022/05/25 07:55:31;;;;;;;8.43;4.82;;;;;;;17.70;63.68;101376.00;5187937;28;20050;-75
2022/05/25 07:58:02;;;;;;;8.93;4.23;;;;;;;18.34;61.94;101387.53;5180702;28;20078;-75
2022/05/25 08:00:33;;;;;;;7.60;4.50;;;;;;;19.03;59.72;101387.00;5158931;28;20041;-77
2022/05/25 08:05:59;;;;;;;6.83;3.10;;;;;;;19.71;54.04;101389.94;5184676;28;20393;-76
2022/05/25 08:08:30;;;;;;;10.27;3.78;;;;;;;20.41;53.88;101396.91;5186262;28;20106;-76
2022/05/25 08:11:06;;;;;;;6.25;3.38;;;;;;;20.49;52.42;101393.50;5185177;28;20485;-76
2022/05/25 08:13:42;;;;;;;12.18;3.10;;;;;;;20.55;52.69;101397.44;5191941;28;20023;-77
2022/05/25 08:16:14;;;;;;;12.05;2.97;;;;;;;20.78;50.55;101389.94;5189621;28;20022;-76
2022/05/25 08:18:45;;;;;;;6.30;3.10;;;;;;;20.98;50.29;101387.19;5188245;28;20033;-77
2022/05/25 08:21:16;;;;;;;10.38;3.13;;;;;;;20.80;49.86;101403.91;5182056;28;20037;-76
2022/05/25 08:23:48;;;;;;;6.93;3.25;;;;;;;20.94;49.61;101396.47;5194737;28;20030;-75
2022/05/25 08:26:19;;;;;;;8.93;2.72;;;;;;;20.59;50.12;101395.31;5190502;28;20034;-73
2022/05/25 08:28:51;;;;;;;4.88;2.78;;;;;;;20.87;50.21;101385.56;5190173;28;20314;-73
2022/05/25 08:31:22;;;;;;;6.38;2.60;;;;;;;21.14;49.26;101389.22;5191011;28;20366;-73
2022/05/25 08:33:54;;;;;;;6.28;2.70;;;;;;;21.73;47.55;101385.31;5189663;28;20393;-73
2022/05/25 08:36:25;;;;;;;6.55;2.33;;;;;;;22.21;47.34;101384.22;5190508;28;20097;-73
2022/05/25 08:38:57;;;;;;;7.22;2.20;;;;;;;22.60;45.80;101378.41;5189462;28;20030;-73
2022/05/25 08:41:37;;;;;;;8.55;3.03;;;;;;;23.01;46.23;101381.47;5170767;28;20027;-81
2022/05/25 08:44:10;;;;;;;4.53;2.15;;;;;;;23.51;44.00;101386.97;5170727;28;20035;-75
2022/05/25 08:46:41;;;;;;;5.60;2.50;;;;;;;23.92;43.17;101376.28;5170180;28;20031;-75
2022/05/25 08:49:17;;;;;;;7.65;2.53;;;;;;;24.22;42.00;101382.97;5169723;28;20029;-75
2022/05/25 08:51:51;;;;;;;8.35;1.90;;;;;;;24.71;40.61;101370.44;5170122;28;20461;-75
2022/05/25 08:54:26;;;;;;;9.38;1.92;;;;;;;24.87;40.11;101390.97;5170131;28;20031;-75
2022/05/25 08:57:03;;;;;;;6.15;2.67;;;;;;;24.68;39.42;101392.22;5172934;28;20418;-75
2022/05/25 08:59:42;;;;;;;6.55;1.90;;;;;;;24.86;38.36;101384.78;5170470;28;20054;-75
2022/05/25 09:02:27;;;;;;;10.75;2.40;;;;;;;25.30;39.11;101382.56;5169205;28;20114;-74
2022/05/25 09:05:34;;;;;;;5.93;1.95;;;;;;;25.32;40.22;101383.22;5185290;28;20037;-74
2022/05/25 09:08:16;;;;;;;6.60;2.22;;;;;;;25.44;39.12;101385.47;5170232;28;20093;-75
2022/05/25 09:10:59;;;;;;;11.23;3.25;;;;;;;25.77;37.85;101376.38;5168978;28;20085;-75
2022/05/25 09:13:40;;;;;;;7.50;1.90;;;;;;;25.53;36.55;101383.59;5170226;28;20068;-74
2022/05/25 09:16:17;;;;;;;6.55;2.13;;;;;;;26.15;34.98;101397.00;5170531;28;20801;-74
2022/05/25 09:18:51;;;;;;;6.50;2.25;;;;;;;26.04;34.76;101391.06;5169922;28;20033;-74
2022/05/25 09:21:29;;;;;;;4.63;1.33;;;;;;;26.31;36.00;101391.47;5168149;28;20035;-74
2022/05/25 09:24:08;;;;;;;5.75;2.00;;;;;;;25.06;35.70;101404.97;5169603;28;20026;-74
2022/05/25 09:26:39;;;;;;;4.00;1.00;;;;;;;24.56;34.95;101402.47;5170520;28;20023;-74
2022/05/25 09:29:11;;;;;;;6.35;1.27;;;;;;;24.80;35.22;101406.91;5168482;28;20035;-74
2022/05/25 09:31:57;;;;;;;3.55;1.20;;;;;;;25.35;35.18;101398.94;5168897;28;20035;-74
2022/05/25 09:34:38;;;;;;;2.97;1.20;;;;;;;25.48;33.66;101405.56;5168833;28;20363;-74
2022/05/25 09:37:32;;;;;;;3.45;1.17;;;;;;;26.01;33.99;101399.47;5169987;28;20041;-74
2022/05/25 09:40:10;;;;;;;4.50;1.13;;;;;;;25.99;33.33;101404.19;5190252;28;20033;-74
2022/05/25 09:42:41;;;;;;;4.38;1.00;;;;;;;25.78;32.70;101391.47;5189012;28;20085;-74
2022/05/25 09:45:14;;;;;;;9.50;1.38;;;;;;;25.05;32.54;101408.69;5189504;28;20118;-74
2022/05/25 09:47:48;;;;;;;2.60;1.00;;;;;;;24.60;33.29;101417.16;5187746;28;20034;-74
2022/05/25 09:50:35;;;;;;;3.17;1.00;;;;;;;24.31;35.83;101407.88;5187192;28;20062;-74
2022/05/25 09:53:11;;;;;;;4.70;1.45;;;;;;;24.04;35.83;101418.72;5189069;28;20034;-74
2022/05/25 09:56:09;;;;;;;2.63;0.80;;;;;;;23.67;34.69;101404.84;5190198;28;20022;-74
2022/05/25 09:58:45;;;;;;;8.02;1.00;;;;;;;23.48;34.75;101393.47;5188549;28;20418;-74
2022/05/25 10:01:24;;;;;;;3.65;1.00;;;;;;;24.01;34.62;101419.91;5188545;28;20023;-74
2022/05/25 10:03:55;;;;;;;4.82;0.82;;;;;;;23.93;33.66;101410.03;5188688;28;20421;-74
2022/05/25 10:06:51;;;;;;;6.57;0.80;;;;;;;24.82;32.79;101431.66;5175077;28;20027;-73
2022/05/25 10:09:30;;;;;;;2.75;0.80;;;;;;;24.73;33.60;101419.31;5168281;28;20118;-75
2022/05/25 10:12:22;;;;;;;5.97;0.90;;;;;;;25.95;31.99;101424.34;5168653;28;20022;-75
2022/05/25 10:15:00;;;;;;;4.32;1.10;;;;;;;25.88;31.08;101418.88;5168816;28;20038;-73
2022/05/25 10:17:40;;;;;;;4.55;1.33;;;;;;;26.49;31.60;101408.25;5177160;28;20072;-77
2022/05/25 10:20:28;;;;;;;3.88;0.90;;;;;;;26.79;31.87;101427.88;5176555;28;20030;-78
2022/05/25 10:23:18;;;;;;;5.68;1.08;;;;;;;27.14;30.01;101421.94;5171659;28;20066;-75
2022/05/25 10:25:55;;;;;;;2.15;0.70;;;;;;;27.11;29.24;101421.47;5169759;28;20058;-75
2022/05/25 10:28:28;;;;;;;3.50;0.80;;;;;;;26.77;28.99;101424.56;5169338;28;20069;-76
2022/05/25 10:36:58;;;;;;;2.90;0.80;;;;;;;26.93;29.84;101406.56;5177038;28;19961;-76
2022/05/25 10:39:30;;;;;;;3.17;0.70;;;;;;;26.32;28.98;101411.09;5181019;28;20027;-76
2022/05/25 10:42:12;;;;;;;3.83;0.88;;;;;;;25.84;30.40;101405.00;5186656;28;20029;-77
2022/05/25 10:45:08;;;;;;;3.20;0.75;;;;;;;26.17;29.96;101411.06;5186087;28;20054;-78
2022/05/25 10:47:51;;;;;;;3.67;0.90;;;;;;;25.39;29.62;101407.47;5174860;28;20489;-75
2022/05/25 10:50:57;;;;;;;3.42;0.80;;;;;;;24.97;31.47;101417.56;5176632;28;20018;-75
2022/05/25 10:54:44;;;;;;;4.70;0.90;;;;;;;25.15;30.88;101409.28;5173778;28;20042;-81
2022/05/25 10:57:07;;;;;;;3.38;0.60;;;;;;;25.44;31.67;101409.63;5178944;28;20050;-81
2022/05/25 10:59:55;;;;;;;5.53;0.80;;;;;;;24.94;30.86;101402.69;5179115;28;20018;-80
2022/05/25 11:02:41;;;;;;;3.70;0.80;;;;;;;24.56;29.90;101415.84;5178520;28;20481;-80
2022/05/25 11:05:23;;;;;;;3.75;0.68;;;;;;;24.39;30.32;101387.28;5176036;28;20134;-84
2022/05/25 11:08:23;;;;;;;4.35;1.10;;;;;;;24.34;31.22;101405.69;5178266;28;20046;-83
2022/05/25 11:11:29;;;;;;;5.22;0.98;;;;;;;24.16;32.19;101414.72;5178084;28;20487;-76
2022/05/25 11:14:32;;;;;;;3.15;0.75;;;;;;;24.25;32.60;101414.72;5175416;28;20031;-81
2022/05/25 11:17:20;;;;;;;2.38;0.90;;;;;;;23.95;33.37;101412.53;5177314;28;20042;-82
2022/05/25 11:20:16;;;;;;;7.38;1.00;;;;;;;23.88;33.05;101403.50;5184511;28;20030;-82
2022/05/25 11:23:02;;;;;;;3.63;0.85;;;;;;;23.92;32.47;101405.72;5175881;28;20903;-80
2022/05/25 11:25:53;;;;;;;2.92;1.00;;;;;;;24.07;32.56;101401.53;5175655;28;20504;-84
2022/05/25 11:28:34;;;;;;;6.32;0.80;;;;;;;24.11;32.44;101392.97;5174202;28;20102;-84
2022/05/25 11:31:17;;;;;;;6.82;0.88;;;;;;;24.00;33.31;101396.00;5181407;28;20724;-82
2022/05/25 11:34:11;;;;;;;2.63;0.77;;;;;;;24.60;32.23;101391.25;5182629;28;20030;-77
2022/05/25 11:37:21;;;;;;;8.75;1.50;;;;;;;24.74;33.08;101389.69;5192053;28;20375;-76
2022/05/25 11:40:13;;;;;;;2.95;1.00;;;;;;;24.51;32.57;101381.53;5169309;28;20121;-76
2022/05/25 11:42:51;;;;;;;3.67;0.90;;;;;;;24.80;32.68;101380.13;5174358;28;20580;-79
2022/05/25 11:46:00;;;;;;;3.42;0.70;;;;;;;24.72;32.65;101382.81;5183575;28;20058;-77
2022/05/25 11:48:41;;;;;;;4.15;1.10;;;;;;;24.17;33.05;101354.00;5179352;28;20501;-83
2022/05/25 11:51:21;;;;;;;3.08;0.90;;;;;;;24.11;32.27;101371.56;5180186;28;20401;-81
2022/05/25 11:54:21;;;;;;;2.75;0.70;;;;;;;24.27;31.94;101378.78;5183369;28;20509;-74
2022/05/25 11:57:08;;;;;;;4.47;1.08;;;;;;;23.77;32.70;101380.63;5191641;28;20055;-74
2022/05/25 12:00:04;;;;;;;4.75;1.08;;;;;;;23.96;32.63;101382.13;5191313;28;20030;-74
2022/05/25 12:02:54;;;;;;;5.15;1.55;;;;;;;23.86;32.96;101384.16;5185818;28;20117;-72
2022/05/25 12:05:53;;;;;;;7.00;1.00;;;;;;;23.66;33.46;101385.31;5189883;28;20118;-74
2022/05/25 12:08:43;;;;;;;4.45;0.90;;;;;;;23.55;33.27;101383.78;5191336;28;20060;-74
2022/05/25 12:11:23;;;;;;;7.53;1.30;;;;;;;23.84;34.31;101386.16;5190807;28;20041;-74
2022/05/25 12:14:22;;;;;;;6.03;1.20;;;;;;;23.95;32.77;101384.97;5194766;28;20049;-74
2022/05/25 12:17:01;;;;;;;4.43;1.02;;;;;;;23.28;33.70;101379.53;5190174;28;20054;-74
2022/05/25 12:19:36;;;;;;;6.15;1.10;;;;;;;23.08;33.10;101382.50;5190695;28;20110;-74
2022/05/25 12:22:15;;;;;;;6.10;1.30;;;;;;;23.16;33.46;101385.19;5189798;28;20026;-74
2022/05/25 12:24:55;;;;;;;7.88;1.35;;;;;;;22.60;33.36;101385.63;5191959;28;20077;-74
2022/05/25 12:27:45;;;;;;;10.95;1.30;;;;;;;22.98;33.75;101379.13;5190501;28;20049;-74
2022/05/25 12:30:24;;;;;;;3.50;0.50;;;;;;;22.83;33.12;101401.09;5170758;28;20110;-74
2022/05/25 12:32:57;;;;;;;4.22;0.90;;;;;;;22.67;33.41;101394.66;5169712;28;20019;-74
2022/05/25 12:35:31;;;;;;;4.72;0.90;;;;;;;22.30;34.37;101396.63;5171597;28;20022;-73